createdAt,value
2022-11-09T15:02:46.857Z,0.75
2022-11-09T15:05:02.338Z,0.73
2022-11-09T15:07:05.047Z,0.98
2022-11-09T15:09:09.604Z,0.65
2022-11-09T15:11:11.510Z,1.00
2022-11-09T15:13:13.210Z,0.57
2022-11-09T15:15:21.399Z,0.60
2022-11-09T15:17:27.330Z,0.52
2022-11-09T15:19:36.865Z,0.50
2022-11-09T15:21:38.732Z,0.82
2022-11-09T15:23:43.284Z,0.40
2022-11-09T15:25:45.796Z,0.75
2022-11-09T15:28:09.361Z,0.60
2022-11-09T15:30:43.138Z,1.65
2022-11-09T15:32:48.672Z,1.38
2022-11-09T15:34:59.287Z,0.57
2022-11-09T15:37:01.358Z,0.82
2022-11-09T15:39:14.814Z,1.15
2022-11-09T15:41:22.984Z,0.40
2022-11-09T15:43:25.279Z,0.82
2022-11-09T15:45:27.096Z,0.90
2022-11-09T15:47:33.598Z,0.80
2022-11-09T15:49:35.269Z,0.60
2022-11-09T15:51:37.494Z,0.40
2022-11-09T15:53:39.975Z,0.57
2022-11-09T15:55:41.557Z,0.95
2022-11-09T15:57:43.577Z,0.60
2022-11-09T15:59:50.168Z,0.80
2022-11-09T16:01:52.049Z,0.80
2022-11-09T16:03:53.747Z,0.55
2022-11-09T16:05:55.487Z,1.63
2022-11-09T16:07:57.587Z,1.00
2022-11-09T16:10:01.861Z,0.88
2022-11-09T16:12:04.101Z,1.00
2022-11-09T16:14:06.701Z,1.35
2022-11-09T16:16:11.050Z,0.95
2022-11-09T16:18:12.697Z,0.90
2022-11-09T16:20:15.051Z,1.38
2022-11-09T16:22:16.751Z,1.25
2022-11-09T16:24:18.909Z,1.63
2022-11-09T16:26:20.826Z,1.00
2022-11-09T16:28:24.279Z,1.30
2022-11-09T16:30:28.293Z,1.48
2022-11-09T16:32:30.553Z,1.10
2022-11-09T16:34:32.224Z,0.85
2022-11-09T16:36:34.122Z,0.73
2022-11-09T16:38:42.364Z,0.93
2022-11-09T16:40:44.752Z,0.85
2022-11-09T16:42:48.252Z,0.85
2022-11-09T16:44:49.904Z,0.70
2022-11-09T16:46:52.231Z,0.85
2022-11-09T16:48:54.834Z,0.70
2022-11-09T16:50:56.489Z,0.88
2022-11-09T16:52:58.074Z,1.05
2022-11-09T16:54:59.756Z,0.93
2022-11-09T16:57:01.760Z,0.63
2022-11-09T16:59:03.648Z,0.70
2022-11-09T17:01:14.519Z,1.02
2022-11-09T17:03:18.420Z,0.93
2022-11-09T17:05:20.327Z,0.80
2022-11-09T17:07:22.023Z,1.65
2022-11-09T17:09:23.762Z,0.55
2022-11-09T17:11:26.253Z,0.63
2022-11-09T17:13:27.983Z,0.77
2022-11-09T17:15:29.584Z,0.90
2022-11-09T17:17:31.273Z,0.73
2022-11-09T17:19:34.599Z,0.60
2022-11-09T17:21:36.589Z,1.27
2022-11-09T17:23:38.852Z,0.60
2022-11-09T17:25:41.265Z,0.80
2022-11-09T17:27:42.873Z,0.60
2022-11-09T17:29:44.465Z,0.82
2022-11-09T17:31:46.074Z,0.98
2022-11-09T17:33:48.532Z,0.70
2022-11-09T17:35:59.291Z,1.05
2022-11-09T17:40:02.572Z,0.77
2022-11-09T17:42:04.288Z,0.80
2022-11-09T17:44:06.035Z,0.98
2022-11-09T17:46:19.134Z,0.77
2022-11-09T17:48:21.160Z,0.93
2022-11-09T17:50:23.086Z,0.65
2022-11-09T17:52:25.262Z,1.08
2022-11-09T17:54:33.925Z,0.80
2022-11-09T17:56:38.653Z,0.95
2022-11-09T17:58:42.695Z,0.82
2022-11-09T18:00:45.160Z,0.82
2022-11-09T18:02:46.936Z,0.60
2022-11-09T18:04:48.666Z,0.82
2022-11-09T18:06:50.407Z,1.02
2022-11-09T18:09:19.391Z,0.70
2022-11-09T18:11:15.333Z,0.65
2022-11-09T18:13:17.157Z,0.93
2022-11-09T18:15:18.806Z,1.98
2022-11-09T18:17:20.555Z,1.35
2022-11-09T18:19:22.301Z,1.02
2022-11-09T18:21:24.963Z,1.20
2022-11-09T18:23:26.558Z,1.15
2022-11-09T18:25:28.414Z,1.42
2022-11-09T18:27:30.636Z,2.28
2022-11-09T18:29:32.282Z,1.05
2022-11-09T18:31:34.095Z,1.02
2022-11-09T18:33:36.254Z,1.30
2022-11-09T18:35:37.909Z,1.30
2022-11-09T18:37:39.737Z,1.27
2022-11-09T18:39:41.343Z,1.08
2022-11-09T18:41:42.952Z,1.67
2022-11-09T18:43:47.720Z,1.75
2022-11-09T18:46:04.000Z,1.50
2022-11-09T18:48:05.828Z,1.65
2022-11-09T18:50:07.937Z,2.28
2022-11-09T18:52:09.666Z,1.40
2022-11-09T18:54:11.284Z,1.00
2022-11-09T18:56:21.956Z,1.50
2022-11-09T19:00:25.728Z,1.55
2022-11-09T19:02:27.390Z,1.85
2022-11-09T19:04:29.033Z,1.52
2022-11-09T19:06:30.891Z,2.15
2022-11-09T19:08:51.709Z,2.90
2022-11-09T19:12:55.138Z,1.85
2022-11-09T19:14:56.767Z,1.50
2022-11-09T19:16:58.446Z,4.70
2022-11-09T19:19:00.066Z,2.10
2022-11-09T19:21:01.986Z,2.03
2022-11-09T19:23:03.674Z,2.45
2022-11-09T19:25:05.881Z,1.95
2022-11-09T19:27:07.505Z,2.13
2022-11-09T19:29:10.881Z,2.20
2022-11-09T19:31:15.015Z,1.40
2022-11-09T19:33:16.751Z,3.05
2022-11-09T19:35:24.024Z,1.67
2022-11-09T19:37:28.185Z,2.28
2022-11-09T19:39:33.675Z,2.65
2022-11-09T19:41:36.713Z,2.13
2022-11-09T19:43:38.359Z,1.85
2022-11-09T19:45:42.845Z,2.05
2022-11-09T19:47:44.541Z,2.50
2022-11-09T19:49:46.143Z,2.00
2022-11-09T19:51:47.894Z,1.70
2022-11-09T19:54:03.987Z,2.30
2022-11-09T19:56:08.727Z,2.00
2022-11-09T19:58:10.949Z,1.75
2022-11-09T20:00:12.967Z,1.77
2022-11-09T20:02:15.100Z,2.00
2022-11-09T20:04:16.698Z,2.08
2022-11-09T20:06:19.135Z,2.20
2022-11-09T20:08:21.085Z,2.03
2022-11-09T20:10:24.142Z,1.85
2022-11-09T20:12:44.289Z,2.42
2022-11-09T20:14:45.993Z,1.90
2022-11-09T20:16:48.522Z,3.25
2022-11-09T20:18:50.222Z,3.72
2022-11-09T20:20:54.147Z,2.47
2022-11-09T20:22:55.879Z,3.17
2022-11-09T20:24:57.742Z,3.22
2022-11-09T20:26:59.385Z,3.08
2022-11-09T20:29:01.030Z,3.17
2022-11-09T20:31:13.503Z,2.60
